LFLB Airport Information

Runway Information
Runway 18 Length 6628 ft width 148 ft
Elevation 769 ft Threshold 755 ft Heading 176
Runway 36 Length 6628 ft Width 148 ft
Elevation 778 ft Threshold 460 ft Heading 356
Airport Frequencies
Type APP Name CHAMBERY A Frequency 123.7 MHZ
Type ATIS Name CHAMBERY A Frequency 124.575 MHZ
Type TWR Name CHAMBERY T Frequency 118.3 MHZ
Airport Navaids
Airport Weather Information & NOTAM
ADDS - METARS form results

(0958 UTC 23 July 2018)
 
METAR text: LFLB 230930Z AUTO 02006KT 340V050 CAVOK 26/15 Q1016 NOSIG
Conditions at: LFLB (CHAMBERY/AIX BAI, FR) observed 0930 UTC 23 July 2018
Temperature: 26.0°C (79°F)
Dewpoint: 15.0°C (59°F) [RH = 51%]
Pressure (altimeter): 30.00 inches Hg (1016.0 mb)
Winds: from the NNE (20 degrees) at 7 MPH (6 knots; 3.1 m/s)
Visibility: 6 or more miles (10+ km)
Ceiling: ceiling and visibility are OK
Clouds: unknown
Weather: no significant weather observed at this time

METAR text: LFLB 230900Z AUTO 03006KT 360V060 CAVOK 25/16 Q1016 NOSIG
Conditions at: LFLB (CHAMBERY/AIX BAI, FR) observed 0900 UTC 23 July 2018
Temperature: 25.0°C (77°F)
Dewpoint: 16.0°C (61°F) [RH = 57%]
Pressure (altimeter): 30.00 inches Hg (1016.0 mb)
Winds: from the NNE (30 degrees) at 7 MPH (6 knots; 3.1 m/s)
Visibility: 6 or more miles (10+ km)
Ceiling: ceiling and visibility are OK
Clouds: unknown
Weather: no significant weather observed at this time